createdAt,value
2019-02-28T00:02:07.945Z,3.65
2019-02-28T00:04:35.856Z,3.57
2019-02-28T00:07:03.748Z,3.55
2019-02-28T00:09:32.565Z,3.35
2019-02-28T00:12:02.383Z,3.29
2019-02-28T00:14:31.325Z,3.33
2019-02-28T00:16:59.208Z,3.58
2019-02-28T00:19:27.100Z,3.53
2019-02-28T00:21:55.015Z,3.45
2019-02-28T00:24:22.901Z,3.56
2019-02-28T00:26:50.796Z,3.80
2019-02-28T00:29:19.652Z,3.97
2019-02-28T00:31:49.914Z,4.15
2019-02-28T00:34:15.455Z,4.20
2019-02-28T00:36:45.340Z,4.22
2019-02-28T00:39:13.240Z,4.18
2019-02-28T00:41:44.312Z,4.29
2019-02-28T00:44:09.031Z,4.32
2019-02-28T00:46:37.961Z,4.38
2019-02-28T00:49:05.858Z,4.50
2019-02-28T00:51:33.799Z,4.52
2019-02-28T00:54:01.684Z,4.58
2019-02-28T00:56:29.598Z,4.72
2019-02-28T00:59:02.555Z,4.81
2019-02-28T01:01:32.429Z,4.74
2019-02-28T01:04:07.718Z,4.71
2019-02-28T01:06:35.622Z,4.61
2019-02-28T01:09:03.515Z,4.51
2019-02-28T01:11:31.409Z,4.35
2019-02-28T01:14:01.668Z,4.20
2019-02-28T01:16:28.155Z,4.10
2019-02-28T01:18:56.035Z,4.12
2019-02-28T01:21:24.584Z,3.95
2019-02-28T01:23:51.881Z,4.24
2019-02-28T01:26:19.775Z,4.47
2019-02-28T01:28:47.743Z,4.49
2019-02-28T01:31:15.646Z,4.61
2019-02-28T01:33:43.535Z,4.44
2019-02-28T01:36:12.287Z,4.31
2019-02-28T01:38:40.383Z,4.13
2019-02-28T01:41:10.975Z,4.06
2019-02-28T01:43:36.177Z,4.01
2019-02-28T01:46:04.135Z,4.12
2019-02-28T01:48:31.996Z,4.17
2019-02-28T01:51:03.569Z,4.18
2019-02-28T01:53:36.359Z,4.46
2019-02-28T01:56:04.261Z,4.64
2019-02-28T01:58:34.290Z,4.94
2019-02-28T02:01:02.219Z,4.75
2019-02-28T02:03:34.732Z,4.79
2019-02-28T02:06:02.628Z,5.08
2019-02-28T02:08:30.548Z,4.94
2019-02-28T02:11:03.085Z,4.91
2019-02-28T02:13:36.672Z,4.95
2019-02-28T02:16:00.832Z,5.04
2019-02-28T02:18:28.726Z,4.93
2019-02-28T02:20:57.433Z,4.76
2019-02-28T02:23:24.560Z,4.59
2019-02-28T02:25:52.444Z,4.45
2019-02-28T02:28:20.345Z,4.53
2019-02-28T02:30:50.935Z,4.59
2019-02-28T02:33:16.170Z,4.55
2019-02-28T02:35:45.222Z,4.56
2019-02-28T02:38:14.022Z,4.57
2019-02-28T02:40:41.939Z,4.74
2019-02-28T02:43:09.941Z,4.81
2019-02-28T02:45:41.911Z,4.71
2019-02-28T02:48:06.850Z,4.62
2019-02-28T02:50:35.783Z,4.49
2019-02-28T02:53:05.410Z,4.38
2019-02-28T02:55:29.516Z,4.30
2019-02-28T02:57:57.413Z,4.31
2019-02-28T03:00:26.287Z,4.27
2019-02-28T03:02:58.913Z,4.28
2019-02-28T03:05:26.800Z,4.23
2019-02-28T03:07:59.425Z,4.19
2019-02-28T03:10:23.522Z,4.17
2019-02-28T03:12:53.349Z,4.06
2019-02-28T03:15:26.820Z,4.06
2019-02-28T03:17:50.045Z,3.99
2019-02-28T03:20:18.109Z,4.00
2019-02-28T03:22:53.386Z,3.90
2019-02-28T03:25:27.704Z,3.88
2019-02-28T03:27:54.972Z,3.98
2019-02-28T03:30:29.453Z,4.23
2019-02-28T03:32:46.038Z,4.53
2019-02-28T03:35:13.903Z,4.55
2019-02-28T03:37:43.735Z,4.55
2019-02-28T03:40:11.647Z,4.32
2019-02-28T03:42:39.616Z,4.20
2019-02-28T03:45:07.525Z,4.13
2019-02-28T03:47:35.439Z,3.97
2019-02-28T03:50:03.341Z,3.99
2019-02-28T03:52:31.238Z,4.11
2019-02-28T03:55:03.260Z,4.05
2019-02-28T03:57:29.410Z,4.06
2019-02-28T03:59:56.760Z,4.04
2019-02-28T04:02:22.971Z,4.02
2019-02-28T04:04:50.910Z,3.93
2019-02-28T04:07:18.820Z,4.07
2019-02-28T04:09:47.646Z,4.43
2019-02-28T04:12:16.274Z,4.44
2019-02-28T04:14:45.161Z,4.78
2019-02-28T04:17:13.091Z,4.91
2019-02-28T04:19:41.965Z,5.06
2019-02-28T04:22:09.896Z,5.06
2019-02-28T04:24:37.797Z,5.00
2019-02-28T04:27:06.917Z,4.85
2019-02-28T04:29:33.624Z,4.80
2019-02-28T04:32:01.546Z,4.78
2019-02-28T04:34:29.428Z,4.74
2019-02-28T04:36:57.367Z,4.54
2019-02-28T04:39:25.270Z,4.46
2019-02-28T04:41:53.172Z,4.40
2019-02-28T04:44:21.086Z,4.42
2019-02-28T04:46:49.966Z,4.50
2019-02-28T04:49:21.836Z,4.52
2019-02-28T04:51:45.911Z,4.52
2019-02-28T04:54:13.796Z,4.49
2019-02-28T04:56:42.252Z,4.63
2019-02-28T04:59:09.636Z,4.70
2019-02-28T05:01:37.547Z,4.67
2019-02-28T05:04:05.422Z,4.56
2019-02-28T05:06:37.129Z,4.46
2019-02-28T05:09:05.095Z,4.37
2019-02-28T05:11:33.904Z,4.36
2019-02-28T05:14:01.932Z,4.45
2019-02-28T05:16:29.827Z,4.53
2019-02-28T05:19:01.527Z,4.59
2019-02-28T05:21:28.853Z,5.24
2019-02-28T05:23:56.766Z,5.72
2019-02-28T05:26:26.286Z,5.75
2019-02-28T05:28:52.692Z,6.15
2019-02-28T05:31:20.607Z,6.27
2019-02-28T05:33:48.540Z,6.76
2019-02-28T05:36:16.468Z,6.93
2019-02-28T05:38:44.367Z,7.14
2019-02-28T05:41:15.321Z,7.40
2019-02-28T05:43:40.232Z,7.62
2019-02-28T05:46:08.151Z,7.50
2019-02-28T05:48:38.601Z,7.46
2019-02-28T05:51:05.852Z,7.22
2019-02-28T05:53:33.776Z,7.19
2019-02-28T05:56:01.848Z,7.00
2019-02-28T05:58:30.860Z,6.83
2019-02-28T06:01:00.760Z,6.50
2019-02-28T06:03:32.458Z,6.66
2019-02-28T06:06:01.305Z,7.18
2019-02-28T06:08:29.193Z,7.32
2019-02-28T06:11:00.601Z,7.18
2019-02-28T06:13:29.752Z,6.84
2019-02-28T06:15:57.676Z,6.68
2019-02-28T06:18:26.998Z,6.58
2019-02-28T06:20:53.623Z,6.66
2019-02-28T06:23:21.521Z,6.64
2019-02-28T06:25:49.513Z,6.75
2019-02-28T06:28:17.409Z,6.75
2019-02-28T06:30:45.332Z,6.79
2019-02-28T06:33:13.235Z,7.18
2019-02-28T06:35:41.145Z,7.77
2019-02-28T06:38:09.041Z,8.12
2019-02-28T06:40:37.882Z,8.29
2019-02-28T06:43:05.845Z,8.42
2019-02-28T06:45:36.994Z,8.61
2019-02-28T06:48:02.154Z,8.53
2019-02-28T06:50:31.931Z,8.95
2019-02-28T06:52:59.952Z,9.02
2019-02-28T06:55:27.788Z,9.10
2019-02-28T06:57:58.838Z,9.13
2019-02-28T07:00:24.579Z,9.09
2019-02-28T07:02:56.283Z,9.12
2019-02-28T07:05:28.096Z,9.24
2019-02-28T07:07:56.506Z,9.28
2019-02-28T07:10:25.397Z,9.48
2019-02-28T07:12:53.279Z,9.57
2019-02-28T07:15:24.781Z,9.69
2019-02-28T07:17:49.078Z,9.90
2019-02-28T07:20:17.716Z,10.04
2019-02-28T07:22:45.622Z,10.21
2019-02-28T07:25:13.899Z,10.27
2019-02-28T07:27:41.468Z,10.45
2019-02-28T07:30:09.972Z,10.56
2019-02-28T07:32:43.472Z,10.65
2019-02-28T07:35:11.368Z,10.83
2019-02-28T07:37:39.338Z,10.95
2019-02-28T07:40:08.615Z,11.14
2019-02-28T07:42:37.565Z,11.21
2019-02-28T07:45:04.531Z,11.35
2019-02-28T07:47:34.351Z,11.51
2019-02-28T07:50:02.280Z,11.67
2019-02-28T07:52:33.454Z,11.81
2019-02-28T07:54:59.036Z,12.01
2019-02-28T07:57:26.943Z,12.14
2019-02-28T07:59:55.047Z,12.30
2019-02-28T08:02:22.991Z,12.45
2019-02-28T08:04:54.280Z,12.56
2019-02-28T08:07:18.800Z,12.69
2019-02-28T08:09:46.704Z,12.86
2019-02-28T08:12:14.623Z,12.97
2019-02-28T08:14:43.659Z,13.14
2019-02-28T08:17:10.531Z,13.21
2019-02-28T08:19:43.025Z,13.33
2019-02-28T08:22:10.897Z,13.48
2019-02-28T08:24:38.809Z,13.57
2019-02-28T08:27:06.851Z,13.70
2019-02-28T08:29:34.743Z,13.78
2019-02-28T08:32:06.573Z,13.88
2019-02-28T08:34:30.549Z,14.03
2019-02-28T08:36:58.471Z,14.20
2019-02-28T08:39:26.375Z,14.26
2019-02-28T08:42:04.550Z,14.35
2019-02-28T08:44:28.217Z,14.47
2019-02-28T08:46:56.080Z,14.64
2019-02-28T08:49:23.999Z,14.71
2019-02-28T08:51:51.905Z,14.70
2019-02-28T08:54:26.110Z,14.86
2019-02-28T08:56:49.665Z,15.01
2019-02-28T08:59:20.445Z,15.03
2019-02-28T09:01:44.292Z,15.12
2019-02-28T09:04:11.605Z,15.23
2019-02-28T09:06:40.939Z,15.36
2019-02-28T09:09:07.543Z,15.50
2019-02-28T09:11:35.436Z,15.84
2019-02-28T09:14:03.375Z,16.91
2019-02-28T09:16:31.298Z,17.65
2019-02-28T09:19:00.872Z,17.87
2019-02-28T09:21:27.176Z,18.23
2019-02-28T09:23:55.104Z,18.46
2019-02-28T09:26:23.024Z,18.50
2019-02-28T09:28:51.948Z,18.41
2019-02-28T09:31:19.843Z,18.91
2019-02-28T09:33:47.779Z,19.00
2019-02-28T09:36:20.230Z,19.43
2019-02-28T09:38:45.244Z,19.28
2019-02-28T09:41:11.564Z,19.01
2019-02-28T09:43:40.422Z,19.29
2019-02-28T09:46:09.088Z,19.54
2019-02-28T09:48:37.267Z,19.72
2019-02-28T09:51:04.248Z,19.91
2019-02-28T09:53:33.056Z,19.93
2019-02-28T09:56:00.962Z,19.66
2019-02-28T09:58:29.359Z,19.41
2019-02-28T10:00:56.767Z,19.69
2019-02-28T10:03:24.731Z,19.23
2019-02-28T10:05:52.657Z,20.12
2019-02-28T10:08:21.774Z,20.15
2019-02-28T10:10:48.456Z,20.39
2019-02-28T10:13:18.275Z,19.90
2019-02-28T10:15:44.282Z,19.67
2019-02-28T10:18:12.188Z,19.76
2019-02-28T10:20:41.052Z,19.87
2019-02-28T10:23:09.025Z,20.25
2019-02-28T10:25:41.012Z,19.59
2019-02-28T10:28:04.895Z,19.74
2019-02-28T10:30:32.843Z,19.90
2019-02-28T10:33:00.765Z,20.48
2019-02-28T10:35:28.674Z,21.06
2019-02-28T10:37:58.408Z,20.83
2019-02-28T10:40:26.050Z,20.86
2019-02-28T10:42:54.969Z,20.63
2019-02-28T10:45:22.869Z,20.98
2019-02-28T10:47:50.791Z,21.25
2019-02-28T10:50:20.372Z,20.98
2019-02-28T10:52:48.288Z,20.63
2019-02-28T10:55:16.201Z,20.47
2019-02-28T10:57:44.123Z,20.48
2019-02-28T11:00:22.904Z,20.66
2019-02-28T11:02:53.739Z,20.85
2019-02-28T11:05:19.536Z,20.73
2019-02-28T11:07:46.687Z,21.44
2019-02-28T11:10:14.656Z,20.85
2019-02-28T11:12:42.548Z,20.55
2019-02-28T11:15:13.943Z,20.06
2019-02-28T11:17:38.411Z,19.90
2019-02-28T11:20:08.948Z,20.55
2019-02-28T11:22:39.902Z,19.89
2019-02-28T11:25:06.393Z,20.77
2019-02-28T11:27:35.270Z,20.37
2019-02-28T11:30:03.163Z,20.50
2019-02-28T11:32:32.045Z,20.47
2019-02-28T11:34:59.955Z,20.30
2019-02-28T11:37:27.860Z,19.96
2019-02-28T11:39:56.672Z,20.49
2019-02-28T11:42:27.982Z,20.32
2019-02-28T11:44:52.507Z,21.11
2019-02-28T11:47:20.412Z,21.36
2019-02-28T11:49:49.223Z,21.97
2019-02-28T11:52:17.154Z,21.07
2019-02-28T11:54:45.406Z,20.49
2019-02-28T11:57:12.987Z,20.55
2019-02-28T11:59:40.899Z,20.70
2019-02-28T12:02:08.807Z,20.26
2019-02-28T12:04:37.484Z,19.98
2019-02-28T12:07:04.658Z,20.06
2019-02-28T12:09:32.585Z,19.33
2019-02-28T12:12:00.503Z,20.35
2019-02-28T12:14:30.098Z,20.00
2019-02-28T12:16:57.325Z,19.82
2019-02-28T12:19:28.413Z,19.67
2019-02-28T12:21:55.163Z,19.68
2019-02-28T12:24:29.363Z,20.31
2019-02-28T12:26:55.888Z,20.59
2019-02-28T12:29:24.861Z,20.02
2019-02-28T12:31:52.761Z,20.31
2019-02-28T12:34:20.656Z,19.72
2019-02-28T12:36:49.430Z,20.04
2019-02-28T12:39:16.498Z,20.36
2019-02-28T12:41:44.419Z,20.43
2019-02-28T12:44:15.155Z,20.98
2019-02-28T12:46:40.251Z,20.55
2019-02-28T12:49:08.228Z,20.78
2019-02-28T12:51:36.446Z,21.04
2019-02-28T12:54:04.064Z,20.60
2019-02-28T12:56:31.956Z,20.53
2019-02-28T12:58:59.868Z,20.83
2019-02-28T13:01:27.784Z,21.38
2019-02-28T13:04:00.187Z,21.33
2019-02-28T13:06:24.583Z,20.67
2019-02-28T13:08:53.435Z,20.06
2019-02-28T13:11:19.488Z,20.26
2019-02-28T13:14:00.031Z,20.44
2019-02-28T13:16:25.068Z,20.58
2019-02-28T13:18:53.071Z,20.51
2019-02-28T13:21:20.989Z,20.47
2019-02-28T13:23:48.893Z,20.48
2019-02-28T13:26:16.813Z,21.10
2019-02-28T13:28:44.737Z,21.17
2019-02-28T13:31:12.630Z,21.44
2019-02-28T13:33:40.531Z,21.00
2019-02-28T13:36:08.472Z,21.72
2019-02-28T13:38:36.401Z,21.96
2019-02-28T13:41:04.309Z,21.78
2019-02-28T13:43:32.291Z,21.76
2019-02-28T13:46:00.215Z,21.87
2019-02-28T13:48:33.121Z,21.08
2019-02-28T13:50:59.365Z,20.89
2019-02-28T13:53:27.096Z,21.08
2019-02-28T13:55:52.692Z,21.33
2019-02-28T13:58:21.629Z,21.41
2019-02-28T14:00:47.854Z,21.38
2019-02-28T14:03:17.046Z,21.13
2019-02-28T14:05:47.144Z,20.37
2019-02-28T14:08:15.956Z,20.67
2019-02-28T14:10:43.869Z,20.53
2019-02-28T14:13:11.773Z,20.47
2019-02-28T14:15:52.368Z,20.25
2019-02-28T14:18:16.318Z,20.31
2019-02-28T14:20:44.230Z,20.60
2019-02-28T14:23:12.139Z,20.30
2019-02-28T14:25:41.206Z,20.70
2019-02-28T14:28:11.334Z,20.37
2019-02-28T14:30:39.285Z,20.33
2019-02-28T14:33:07.184Z,20.39
2019-02-28T14:35:38.467Z,20.05
2019-02-28T14:38:04.011Z,20.20
2019-02-28T14:40:32.872Z,20.47
2019-02-28T14:43:00.793Z,20.32
2019-02-28T14:45:29.455Z,20.24
2019-02-28T14:48:00.777Z,19.61
2019-02-28T14:50:26.236Z,19.68
2019-02-28T14:52:54.978Z,19.78
2019-02-28T14:55:22.974Z,19.66
2019-02-28T14:57:51.904Z,18.84
2019-02-28T15:00:20.527Z,18.72
2019-02-28T15:02:48.464Z,18.01
2019-02-28T15:05:16.715Z,18.64
2019-02-28T15:07:47.831Z,19.33
2019-02-28T15:10:26.076Z,19.34
2019-02-28T15:12:55.282Z,19.61
2019-02-28T15:15:21.941Z,19.27
2019-02-28T15:17:55.429Z,18.92
2019-02-28T15:20:24.403Z,18.83
2019-02-28T15:22:55.538Z,18.96
2019-02-28T15:25:21.801Z,18.54
2019-02-28T15:27:49.762Z,18.33
2019-02-28T15:30:20.205Z,18.46
2019-02-28T15:32:50.689Z,18.11
2019-02-28T15:35:16.768Z,18.10
2019-02-28T15:37:44.687Z,17.98
2019-02-28T15:40:16.315Z,17.91
2019-02-28T15:42:42.899Z,18.19
2019-02-28T15:45:10.407Z,17.76
2019-02-28T15:47:38.296Z,17.75
2019-02-28T15:50:06.979Z,16.91
2019-02-28T15:52:36.695Z,16.78
2019-02-28T15:55:03.692Z,16.71
2019-02-28T15:57:32.509Z,16.62
2019-02-28T16:00:02.331Z,16.46
2019-02-28T16:02:30.259Z,16.30
2019-02-28T16:05:05.195Z,16.35
2019-02-28T16:07:32.380Z,16.25
2019-02-28T16:09:57.057Z,16.15
2019-02-28T16:12:23.115Z,16.03
2019-02-28T16:14:52.028Z,15.95
2019-02-28T16:17:19.972Z,15.94
2019-02-28T16:19:48.030Z,15.86
2019-02-28T16:22:18.117Z,15.74
2019-02-28T16:24:43.849Z,15.56
2019-02-28T16:27:12.651Z,15.50
2019-02-28T16:29:41.479Z,15.34
2019-02-28T16:32:09.401Z,15.28
2019-02-28T16:34:38.734Z,15.12
2019-02-28T16:37:05.219Z,15.03
2019-02-28T16:39:39.166Z,14.90
2019-02-28T16:42:08.282Z,14.79
2019-02-28T16:44:36.064Z,14.74
2019-02-28T16:47:04.067Z,14.67
2019-02-28T16:49:33.977Z,14.52
2019-02-28T16:52:02.463Z,14.66
2019-02-28T16:54:30.777Z,14.59
2019-02-28T16:56:58.677Z,14.66
2019-02-28T16:59:28.394Z,14.65
2019-02-28T17:01:55.606Z,14.28
2019-02-28T17:04:22.534Z,14.24
2019-02-28T17:06:56.116Z,14.30
2019-02-28T17:09:26.548Z,14.30
2019-02-28T17:11:57.232Z,14.27
2019-02-28T17:14:25.148Z,14.15
2019-02-28T17:16:59.640Z,14.16
2019-02-28T17:19:28.529Z,14.14
2019-02-28T17:21:56.392Z,13.92
2019-02-28T17:24:24.292Z,13.96
2019-02-28T17:26:57.617Z,13.98
2019-02-28T17:29:26.129Z,13.86
2019-02-28T17:31:53.453Z,13.69
2019-02-28T17:34:24.522Z,13.73
2019-02-28T17:36:49.280Z,13.53
2019-02-28T17:39:17.188Z,13.52
2019-02-28T17:41:45.113Z,13.44
2019-02-28T17:44:20.719Z,13.62
2019-02-28T17:46:48.646Z,13.41
2019-02-28T17:52:33.658Z,13.07
2019-02-28T17:58:08.020Z,13.14
2019-02-28T18:03:36.567Z,13.07
2019-02-28T18:06:17.972Z,12.98
2019-02-28T18:11:42.289Z,12.89
2019-02-28T18:23:12.191Z,12.50
2019-02-28T18:28:54.838Z,12.23
2019-02-28T18:31:22.974Z,12.14
2019-02-28T18:33:52.273Z,12.09
2019-02-28T18:36:18.657Z,12.00
2019-02-28T18:38:58.335Z,11.91
2019-02-28T18:41:31.756Z,11.93
2019-02-28T18:44:00.053Z,11.86
2019-02-28T18:46:29.515Z,11.89
2019-02-28T18:48:55.755Z,11.95
2019-02-28T18:51:23.487Z,11.94
2019-02-28T18:53:51.540Z,11.86
2019-02-28T18:56:19.440Z,11.88
2019-02-28T18:58:47.354Z,11.92
2019-02-28T19:01:15.361Z,11.85
2019-02-28T19:03:45.186Z,11.83
2019-02-28T19:06:13.178Z,11.77
2019-02-28T19:08:41.092Z,11.45
2019-02-28T19:11:09.892Z,11.43
2019-02-28T19:13:37.820Z,11.32
2019-02-28T19:16:05.856Z,11.29
2019-02-28T19:18:33.780Z,11.19
2019-02-28T19:21:01.707Z,11.27
2019-02-28T19:23:41.248Z,11.17
2019-02-28T19:26:09.129Z,11.20
2019-02-28T19:28:37.062Z,11.05
2019-02-28T19:31:06.931Z,11.04
2019-02-28T19:33:34.855Z,10.96
2019-02-28T19:36:02.778Z,11.16
2019-02-28T19:38:33.781Z,11.19
2019-02-28T19:41:01.689Z,11.06
2019-02-28T19:43:29.604Z,11.05
2019-02-28T19:45:57.551Z,11.12
2019-02-28T19:48:25.491Z,11.06
2019-02-28T19:50:53.425Z,11.16
2019-02-28T19:53:21.344Z,11.16
2019-02-28T19:55:56.804Z,11.20
2019-02-28T19:58:23.618Z,11.21
2019-02-28T20:00:52.081Z,11.29
2019-02-28T20:03:19.435Z,11.30
2019-02-28T20:05:47.383Z,11.16
2019-02-28T20:08:15.341Z,11.03
2019-02-28T20:10:43.239Z,11.03
2019-02-28T20:13:11.184Z,11.11
2019-02-28T20:15:40.825Z,11.05
2019-02-28T20:18:09.694Z,10.91
2019-02-28T20:20:37.591Z,10.75
2019-02-28T20:23:05.500Z,10.69
2019-02-28T20:25:37.356Z,10.91
2019-02-28T20:28:05.264Z,10.77
2019-02-28T20:30:33.190Z,10.60
2019-02-28T20:33:01.114Z,10.49
2019-02-28T20:35:29.022Z,10.31
2019-02-28T20:37:57.021Z,10.39
2019-02-28T20:40:28.431Z,10.57
2019-02-28T20:42:56.349Z,10.36
2019-02-28T20:45:24.329Z,10.34
2019-02-28T20:47:57.587Z,10.35
2019-02-28T20:50:26.069Z,10.69
2019-02-28T20:52:53.954Z,10.77
2019-02-28T20:55:21.894Z,10.58
2019-02-28T20:57:54.571Z,10.37
2019-02-28T21:00:25.509Z,10.36
2019-02-28T21:02:53.468Z,10.46
2019-02-28T21:05:21.373Z,10.38
2019-02-28T21:07:52.497Z,10.38
2019-02-28T21:10:20.485Z,10.47
2019-02-28T21:12:54.846Z,10.42
2019-02-28T21:15:25.011Z,10.46
2019-02-28T21:17:53.398Z,10.63
2019-02-28T21:20:21.545Z,10.73
2019-02-28T21:22:55.592Z,10.78
2019-02-28T21:25:24.683Z,10.77
2019-02-28T21:34:51.858Z,10.86
2019-02-28T21:37:23.503Z,10.84
2019-02-28T21:39:52.494Z,10.88
2019-02-28T21:42:20.428Z,10.95
2019-02-28T21:44:48.326Z,11.10
2019-02-28T21:47:16.368Z,11.09
2019-02-28T21:49:45.204Z,11.10
2019-02-28T21:52:13.120Z,11.10
2019-02-28T21:54:44.312Z,11.04
2019-02-28T21:57:12.315Z,11.05
2019-02-28T21:59:46.014Z,10.98
2019-02-28T22:02:13.916Z,10.95
2019-02-28T22:04:41.850Z,10.88
2019-02-28T22:07:09.764Z,10.97
2019-02-28T22:09:38.619Z,10.87
2019-02-28T22:12:08.427Z,10.85
2019-02-28T22:14:36.396Z,10.70
2019-02-28T22:17:04.319Z,10.58
2019-02-28T22:19:32.184Z,10.61
2019-02-28T22:22:01.996Z,10.56
2019-02-28T22:24:33.741Z,10.48
2019-02-28T22:27:01.674Z,10.48
2019-02-28T22:29:42.193Z,10.45
2019-02-28T22:32:10.102Z,10.36
2019-02-28T22:34:38.004Z,10.29
2019-02-28T22:37:05.936Z,10.26
2019-02-28T22:39:34.739Z,10.27
2019-02-28T22:42:02.640Z,10.20
2019-02-28T22:44:30.605Z,10.10
2019-02-28T22:46:58.513Z,10.04
2019-02-28T22:49:26.408Z,10.00
2019-02-28T22:51:54.317Z,9.95
2019-02-28T22:54:22.230Z,9.96
2019-02-28T22:56:50.126Z,9.78
2019-02-28T22:59:18.104Z,9.91
2019-02-28T23:01:47.996Z,9.78
2019-02-28T23:04:15.932Z,9.79
2019-02-28T23:06:50.338Z,9.69
2019-02-28T23:09:18.253Z,9.66
2019-02-28T23:11:46.192Z,9.67
2019-02-28T23:14:14.077Z,9.69
2019-02-28T23:16:45.321Z,9.72
2019-02-28T23:19:13.209Z,9.67
2019-02-28T23:21:41.125Z,9.65
2019-02-28T23:24:09.027Z,9.65
2019-02-28T23:26:53.551Z,9.66
2019-02-28T23:29:21.449Z,9.69
2019-02-28T23:32:09.797Z,9.73
2019-02-28T23:34:39.596Z,9.79
2019-02-28T23:37:07.524Z,9.79
2019-02-28T23:39:35.432Z,9.82
2019-02-28T23:42:03.355Z,9.76
2019-02-28T23:44:33.404Z,9.70
2019-02-28T23:47:01.292Z,9.63
2019-02-28T23:49:29.216Z,9.61
2019-02-28T23:51:57.122Z,9.57
2019-02-28T23:54:25.062Z,9.59
2019-02-28T23:56:52.955Z,9.63
2019-02-28T23:59:20.860Z,9.57
